Time;durP1;ratioP1;P1;durP2;ratioP2;P2;SDS_P1;SDS_P2;PMS_P1;PMS_P2;Temp;Humidity;BMP_temperature;BMP_pressure;BME280_temperature;BME280_humidity;BME280_pressure;Samples;Min_cycle;Max_cycle;Signal;HPM_P1;HPM_P2
2021/12/15 00:00:25;;;;;;;88.30;30.33;;;;;;;8.46;97.88;102661.78;1971389;30;27298;-62
2021/12/15 00:01:30;;;;;;;98.30;31.48;;;;;;;8.45;98.37;102659.97;1972013;30;20063;-63
2021/12/15 00:02:32;;;;;;;100.30;31.70;;;;;;;8.48;98.10;102670.69;1971549;30;24796;-62
2021/12/15 00:03:35;;;;;;;88.75;30.70;;;;;;;8.48;97.51;102670.69;1971305;30;24120;-63
2021/12/15 00:04:38;;;;;;;96.82;32.78;;;;;;;8.48;97.73;102666.25;1971567;30;21415;-62
2021/12/15 00:05:41;;;;;;;104.60;33.65;;;;;;;8.48;97.82;102673.38;1971280;30;29159;-63
2021/12/15 00:06:43;;;;;;;101.90;30.55;;;;;;;8.49;98.25;102664.47;1971510;30;21694;-62
2021/12/15 00:07:45;;;;;;;102.18;30.90;;;;;;;8.49;98.32;102668.06;1971552;30;20075;-62
2021/12/15 00:08:53;;;;;;;99.78;31.90;;;;;;;8.50;98.26;102663.59;1971539;30;22183;-62
2021/12/15 00:09:55;;;;;;;100.75;31.13;;;;;;;8.51;98.28;102665.41;1971852;30;20887;-63
2021/12/15 00:10:58;;;;;;;100.88;32.63;;;;;;;8.52;98.45;102667.19;1971436;29;20098;-63
2021/12/15 00:12:03;;;;;;;105.75;30.92;;;;;;;8.50;98.30;102663.59;1971118;30;28039;-62
2021/12/15 00:13:06;;;;;;;104.82;32.25;;;;;;;8.51;98.28;102660.06;1971422;30;20982;-62
2021/12/15 00:14:19;;;;;;;105.65;31.35;;;;;;;8.50;98.34;102667.16;1971536;30;22412;-63
2021/12/15 00:15:23;;;;;;;99.18;31.45;;;;;;;8.51;97.57;102663.63;1971462;30;20535;-62
2021/12/15 00:16:25;;;;;;;106.28;33.28;;;;;;;8.52;97.63;102661.84;1971363;30;22159;-63
2021/12/15 00:17:27;;;;;;;103.68;31.67;;;;;;;8.51;98.11;102663.63;1971530;30;27274;-63
2021/12/15 00:18:29;;;;;;;99.47;31.02;;;;;;;8.52;97.57;102656.50;1971685;30;20052;-63
2021/12/15 00:19:32;;;;;;;113.93;34.72;;;;;;;8.52;98.18;102659.16;1971652;30;20159;-62
2021/12/15 00:20:34;;;;;;;109.63;30.95;;;;;;;8.53;98.10;102663.66;1971230;30;20987;-63
2021/12/15 00:21:36;;;;;;;97.22;31.50;;;;;;;8.52;98.36;102651.16;1971806;30;21022;-63
2021/12/15 00:22:39;;;;;;;94.10;31.33;;;;;;;8.53;97.56;102658.31;1971687;30;20053;-62
2021/12/15 00:23:45;;;;;;;95.32;29.00;;;;;;;8.54;97.31;102662.75;1970905;30;20927;-62
2021/12/15 00:24:47;;;;;;;97.80;32.20;;;;;;;8.54;97.91;102661.00;1971179;30;20113;-62
2021/12/15 00:25:49;;;;;;;110.03;32.15;;;;;;;8.53;98.41;102648.50;1971636;30;24691;-60
2021/12/15 00:26:54;;;;;;;108.47;31.98;;;;;;;8.53;97.99;102659.19;1971561;30;22015;-62
2021/12/15 00:27:56;;;;;;;107.65;33.72;;;;;;;8.55;98.42;102659.22;1971840;30;20121;-62
2021/12/15 00:28:59;;;;;;;106.10;32.20;;;;;;;8.55;98.11;102661.88;1970752;30;20037;-63
2021/12/15 00:30:06;;;;;;;116.95;33.95;;;;;;;8.54;97.81;102668.09;1978161;29;20040;-63
2021/12/15 00:31:09;;;;;;;110.47;32.47;;;;;;;8.55;97.96;102670.78;1977704;29;20132;-63
2021/12/15 00:32:11;;;;;;;117.75;32.67;;;;;;;8.55;97.92;102661.88;1978233;29;20182;-63
2021/12/15 00:33:13;;;;;;;100.28;31.05;;;;;;;8.55;98.09;102665.44;1977248;29;29904;-62
2021/12/15 00:34:17;;;;;;;114.25;34.25;;;;;;;8.56;97.35;102661.00;1970686;30;22449;-62
2021/12/15 00:35:21;;;;;;;118.72;34.42;;;;;;;8.55;97.35;102665.44;1971362;30;22800;-62
2021/12/15 00:36:23;;;;;;;107.00;31.30;;;;;;;8.55;98.38;102673.47;1972028;30;20277;-63
2021/12/15 00:37:25;;;;;;;128.20;35.90;;;;;;;8.57;98.48;102671.69;1972954;30;21116;-62
2021/12/15 00:38:28;;;;;;;131.40;35.95;;;;;;;8.56;97.54;102661.91;1972971;30;20071;-61
2021/12/15 00:39:32;;;;;;;114.18;33.03;;;;;;;8.58;97.64;102667.28;1973088;30;20854;-62
2021/12/15 00:40:35;;;;;;;114.03;32.17;;;;;;;8.57;98.01;102666.34;1972958;30;20082;-62
2021/12/15 00:41:37;;;;;;;116.82;33.50;;;;;;;8.58;97.72;102672.63;1972442;30;20073;-62
2021/12/15 00:42:39;;;;;;;119.10;34.13;;;;;;;8.59;97.88;102669.94;1971659;30;26865;-64
2021/12/15 00:43:44;;;;;;;110.57;33.22;;;;;;;8.58;97.39;102667.28;1970625;29;20145;-63
2021/12/15 00:44:46;;;;;;;128.43;35.47;;;;;;;8.58;98.24;102664.59;1971952;30;20134;-63
2021/12/15 00:45:48;;;;;;;130.48;33.08;;;;;;;8.59;98.13;102663.72;1964480;30;21067;-63
2021/12/15 00:46:52;;;;;;;118.47;34.60;;;;;;;8.58;98.31;102664.59;1964494;30;20098;-63
2021/12/15 00:47:55;;;;;;;145.13;38.05;;;;;;;8.58;97.97;102661.94;1956513;30;25283;-63
2021/12/15 00:48:58;;;;;;;130.95;35.97;;;;;;;8.57;97.66;102660.13;1957688;30;20044;-63
2021/12/15 00:50:06;;;;;;;132.55;35.83;;;;;;;8.60;97.47;102665.53;1964638;30;20221;-63
2021/12/15 00:51:08;;;;;;;137.05;36.25;;;;;;;8.59;97.78;102664.59;1964868;30;20084;-63
2021/12/15 00:52:11;;;;;;;138.68;36.20;;;;;;;8.59;97.93;102661.03;1965171;30;22705;-63
2021/12/15 00:53:14;;;;;;;140.45;39.22;;;;;;;8.61;97.45;102669.97;1965883;30;20048;-62
2021/12/15 00:54:17;;;;;;;128.10;35.13;;;;;;;8.59;98.00;102674.38;1957199;30;20053;-63
2021/12/15 00:55:24;;;;;;;148.32;38.70;;;;;;;8.60;98.67;102666.41;1957443;30;28014;-63
2021/12/15 00:56:26;;;;;;;142.40;37.15;;;;;;;8.62;97.74;102668.22;1965532;30;20150;-63
2021/12/15 00:57:28;;;;;;;160.05;43.08;;;;;;;8.61;98.24;102667.28;1964761;30;21036;-63
2021/12/15 00:58:31;;;;;;;150.48;36.72;;;;;;;8.62;97.90;102662.88;1967076;30;20040;-63
2021/12/15 00:59:37;;;;;;;147.88;37.08;;;;;;;8.62;98.26;102677.13;1964492;30;20059;-63
2021/12/15 01:00:45;;;;;;;143.27;37.10;;;;;;;8.62;97.75;102677.13;1965163;30;20036;-63
2021/12/15 01:01:49;;;;;;;163.75;38.70;;;;;;;8.63;98.69;102673.53;1965141;30;20294;-63
2021/12/15 01:02:52;;;;;;;155.98;38.30;;;;;;;8.63;98.38;102673.53;1965672;30;20129;-63
2021/12/15 01:03:56;;;;;;;153.07;37.65;;;;;;;8.64;98.30;102672.69;1974784;29;27162;-63
2021/12/15 01:04:58;;;;;;;166.55;40.28;;;;;;;8.64;98.02;102667.34;1979171;29;20086;-63
2021/12/15 01:06:10;;;;;;;169.05;38.33;;;;;;;8.64;98.60;102666.47;1971724;29;20045;-63
2021/12/15 01:07:13;;;;;;;163.90;39.42;;;;;;;8.64;97.71;102678.03;1972128;30;20996;-63
2021/12/15 01:08:22;;;;;;;165.95;39.53;;;;;;;8.66;98.50;102670.03;1972068;30;20915;-63
2021/12/15 01:09:42;;;;;;;166.02;39.25;;;;;;;8.65;98.70;102668.22;1973002;29;21029;-62
2021/12/15 01:19:53;;;;;;;177.80;40.33;;;;;;;8.65;97.90;102666.47;1979414;29;20141;-62
2021/12/15 01:20:57;;;;;;;169.15;38.30;;;;;;;8.65;97.78;102666.47;1976851;29;20661;-62
2021/12/15 01:21:59;;;;;;;186.18;41.22;;;;;;;8.65;98.22;102661.16;1972191;30;20056;-62
2021/12/15 01:23:07;;;;;;;194.00;42.45;;;;;;;8.65;97.96;102663.81;1972602;29;20918;-62
2021/12/15 01:24:12;;;;;;;163.93;38.33;;;;;;;8.67;97.73;102666.47;1972750;29;20175;-62
2021/12/15 01:25:30;;;;;;;182.95;40.90;;;;;;;8.68;98.72;102670.94;1972480;29;23243;-62
2021/12/15 01:26:35;;;;;;;190.73;41.40;;;;;;;8.68;98.04;102673.63;1971940;30;20064;-62
2021/12/15 01:27:37;;;;;;;181.88;42.00;;;;;;;8.69;98.78;102673.66;1972141;30;20097;-62
2021/12/15 01:28:39;;;;;;;200.23;43.85;;;;;;;8.66;98.46;102676.25;1979601;29;20052;-63
2021/12/15 01:29:42;;;;;;;190.90;40.97;;;;;;;8.68;98.89;102679.84;1979504;29;20089;-62
2021/12/15 01:30:51;;;;;;;200.52;43.22;;;;;;;8.68;98.19;102673.63;1972464;29;24123;-63
2021/12/15 01:31:53;;;;;;;187.38;42.67;;;;;;;8.68;98.64;102674.50;1979305;29;20208;-62
2021/12/15 01:32:57;;;;;;;201.77;44.65;;;;;;;8.71;98.95;102679.00;1979423;29;20109;-63
2021/12/15 01:34:01;;;;;;;172.95;39.83;;;;;;;8.69;97.98;102670.97;1979051;29;21180;-63
2021/12/15 01:35:04;;;;;;;193.18;41.05;;;;;;;8.69;98.10;102673.66;1979229;29;20037;-63
2021/12/15 01:36:08;;;;;;;161.63;38.10;;;;;;;8.71;98.10;102671.00;1971898;30;20828;-62
2021/12/15 01:37:12;;;;;;;179.77;39.38;;;;;;;8.72;98.74;102675.44;1971659;30;20706;-62
2021/12/15 01:38:16;;;;;;;194.82;46.00;;;;;;;8.72;98.85;102681.69;1986805;29;20056;-63
2021/12/15 01:39:18;;;;;;;183.10;43.90;;;;;;;8.72;98.18;102672.78;1986250;29;20122;-63
2021/12/15 01:40:35;;;;;;;205.95;46.08;;;;;;;8.72;98.56;102680.78;1986755;29;21067;-62
2021/12/15 01:41:38;;;;;;;161.88;40.00;;;;;;;8.72;98.52;102681.69;1983769;29;20052;-62
2021/12/15 01:42:40;;;;;;;183.93;42.42;;;;;;;8.72;98.27;102676.38;1972803;29;20162;-62
2021/12/15 01:47:32;;;;;;;177.70;44.95;;;;;;;8.75;97.92;102680.84;1983562;29;20946;-62
2021/12/15 01:48:36;;;;;;;257.35;75.85;;;;;;;8.75;98.17;102673.72;1978353;29;20052;-63
2021/12/15 01:49:56;;;;;;;180.93;43.78;;;;;;;8.74;97.74;102679.94;1978795;29;20133;-63
2021/12/15 01:50:59;;;;;;;183.27;41.47;;;;;;;8.73;98.84;102680.81;1971953;30;21373;-63
2021/12/15 01:52:17;;;;;;;177.23;43.92;;;;;;;8.74;98.02;102671.00;1972718;29;20167;-63
2021/12/15 01:53:19;;;;;;;152.48;39.28;;;;;;;8.75;98.66;102681.72;1972610;29;20040;-63
2021/12/15 01:54:25;;;;;;;172.20;42.80;;;;;;;8.75;97.84;102680.84;1978814;29;21031;-62
2021/12/15 01:55:29;;;;;;;176.40;42.97;;;;;;;8.75;98.01;102676.38;1978763;29;20190;-63
2021/12/15 01:56:34;;;;;;;176.65;42.50;;;;;;;8.77;98.45;102688.00;1979136;29;20071;-61
2021/12/15 01:57:37;;;;;;;163.77;42.55;;;;;;;8.75;98.85;102670.16;1985478;29;20127;-62
2021/12/15 01:58:39;;;;;;;156.27;40.45;;;;;;;8.76;98.25;102678.19;1971190;30;20199;-63
2021/12/15 01:59:45;;;;;;;152.70;40.38;;;;;;;8.77;97.95;102674.66;1971382;29;20054;-62
2021/12/15 02:00:56;;;;;;;167.73;43.22;;;;;;;8.78;98.37;102684.44;1979018;29;20083;-62
2021/12/15 02:02:02;;;;;;;155.82;39.40;;;;;;;8.78;98.66;102684.44;1977591;29;20060;-63
2021/12/15 02:03:04;;;;;;;159.85;41.60;;;;;;;8.79;98.76;102686.25;1972034;29;24042;-62
2021/12/15 02:04:07;;;;;;;162.45;42.63;;;;;;;8.80;97.57;102689.81;1979386;29;20118;-63
2021/12/15 02:05:12;;;;;;;164.60;42.92;;;;;;;8.78;98.15;102688.88;1979216;29;20044;-62
2021/12/15 02:06:15;;;;;;;145.23;41.80;;;;;;;8.78;98.04;102692.44;1972347;29;20048;-63
2021/12/15 02:07:23;;;;;;;156.82;41.13;;;;;;;8.78;98.26;102683.56;1972702;29;20166;-63
2021/12/15 02:08:27;;;;;;;151.65;41.95;;;;;;;8.79;97.90;102680.91;1979034;29;20105;-63
2021/12/15 02:10:52;;;;;;;159.85;42.13;;;;;;;8.79;98.35;102688.00;1983641;29;20055;-62
2021/12/15 02:11:54;;;;;;;148.93;42.97;;;;;;;8.79;98.06;102670.22;1978876;29;24259;-63
2021/12/15 02:13:02;;;;;;;135.38;37.45;;;;;;;8.79;98.54;102677.31;1972286;29;20178;-62
2021/12/15 02:14:04;;;;;;;150.65;42.50;;;;;;;8.79;98.01;102677.31;1978442;29;20264;-63
2021/12/15 02:15:18;;;;;;;152.88;42.53;;;;;;;8.79;98.58;102672.91;1985960;29;20047;-62
2021/12/15 02:16:20;;;;;;;135.63;41.40;;;;;;;8.81;97.73;102678.25;1971671;29;20080;-63
2021/12/15 02:17:23;;;;;;;151.85;43.22;;;;;;;8.81;98.04;102674.66;1971761;29;20064;-63
2021/12/15 02:18:30;;;;;;;142.65;39.50;;;;;;;8.82;97.72;102676.47;1978784;29;20047;-63
2021/12/15 02:19:37;;;;;;;;;;;;;;;8.83;98.00;102672.91;1972036;29;20170;-63
2021/12/15 02:20:48;;;;;;;150.48;41.58;;;;;;;8.81;98.24;102675.59;1979502;29;20731;-63
2021/12/15 02:21:50;;;;;;;144.32;42.83;;;;;;;8.82;98.28;102680.03;1977664;29;20133;-63
2021/12/15 02:22:54;;;;;;;141.23;43.75;;;;;;;8.83;97.74;102678.25;1971971;29;20174;-63
2021/12/15 02:23:58;;;;;;;139.05;41.85;;;;;;;8.82;98.30;102680.03;1972256;29;20187;-62
2021/12/15 02:25:02;;;;;;;145.13;42.90;;;;;;;8.81;97.64;102688.94;1971459;30;20059;-63
2021/12/15 02:26:13;;;;;;;148.50;43.15;;;;;;;8.84;97.95;102686.28;1971934;30;20235;-62
2021/12/15 02:27:18;;;;;;;144.55;43.80;;;;;;;8.83;97.59;102684.50;1979038;29;20910;-63
2021/12/15 02:28:21;;;;;;;139.55;42.50;;;;;;;8.85;97.57;102681.88;1978223;29;21517;-62
2021/12/15 02:29:25;;;;;;;125.70;39.00;;;;;;;8.86;98.37;102684.53;1979413;29;20060;-62
2021/12/15 02:32:56;;;;;;;141.25;44.05;;;;;;;8.85;97.93;102677.41;1971607;30;20156;-63
2021/12/15 02:34:18;;;;;;;136.27;40.92;;;;;;;8.87;97.35;102677.44;1972233;29;20041;-62
2021/12/15 02:38:02;;;;;;;124.00;40.20;;;;;;;8.88;97.52;102681.88;1971499;30;19980;-63
2021/12/15 02:39:07;;;;;;;123.97;38.85;;;;;;;8.89;98.09;102678.34;1978624;29;20051;-63
2021/12/15 02:40:17;;;;;;;120.43;39.28;;;;;;;8.89;97.34;102675.66;1978129;29;20063;-63
2021/12/15 02:41:20;;;;;;;134.90;42.22;;;;;;;8.88;97.82;102676.53;1978858;29;20090;-63
2021/12/15 02:42:32;;;;;;;128.68;41.05;;;;;;;8.88;97.93;102679.19;1978560;29;20159;-63
2021/12/15 02:43:34;;;;;;;135.15;43.83;;;;;;;8.87;97.75;102677.44;1971284;30;20927;-62
2021/12/15 02:44:41;;;;;;;131.52;42.28;;;;;;;8.88;97.77;102674.78;1978758;29;20051;-63
2021/12/15 02:45:43;;;;;;;130.20;42.45;;;;;;;8.88;97.10;102679.19;1978159;29;20094;-63
2021/12/15 02:46:46;;;;;;;145.10;45.97;;;;;;;8.89;97.83;102678.34;1971844;29;30084;-62
2021/12/15 02:47:49;;;;;;;135.90;44.90;;;;;;;8.89;97.67;102673.00;1979574;29;21606;-62
2021/12/15 02:48:52;;;;;;;133.35;44.28;;;;;;;8.89;97.58;102678.34;1978416;29;20051;-63
2021/12/15 02:49:57;;;;;;;133.85;44.28;;;;;;;8.89;97.51;102679.22;1978730;29;20047;-63
2021/12/15 02:51:00;;;;;;;132.68;44.15;;;;;;;8.88;97.42;102669.44;1972024;29;22373;-63
2021/12/15 02:52:06;;;;;;;137.57;44.60;;;;;;;8.88;97.53;102671.19;1979130;29;20048;-63
2021/12/15 02:53:11;;;;;;;122.32;41.28;;;;;;;8.89;97.83;102673.88;1971767;30;23911;-63
2021/12/15 02:54:17;;;;;;;133.02;44.42;;;;;;;8.91;97.54;102676.56;1971068;30;29269;-63
2021/12/15 02:55:19;;;;;;;137.55;45.47;;;;;;;8.90;97.26;102674.78;1971946;29;22891;-63
2021/12/15 02:56:21;;;;;;;130.60;45.28;;;;;;;8.90;97.87;102669.44;1978503;29;24492;-63
2021/12/15 02:57:23;;;;;;;127.47;42.85;;;;;;;8.91;97.92;102676.56;1978656;29;23251;-63
2021/12/15 02:58:31;;;;;;;135.88;46.85;;;;;;;8.91;97.03;102673.91;1971300;29;21446;-62
2021/12/15 02:59:46;;;;;;;138.13;44.88;;;;;;;8.92;97.64;102673.03;1971399;30;20086;-63
2021/12/15 03:01:04;;;;;;;132.45;45.50;;;;;;;8.93;97.61;102682.84;1971532;30;23545;-63
2021/12/15 03:02:32;;;;;;;131.88;46.38;;;;;;;8.92;97.66;102683.72;1971420;30;22862;-62
2021/12/15 03:04:49;;;;;;;124.53;43.67;;;;;;;8.92;97.59;102686.41;1971257;30;21268;-62
2021/12/15 03:06:09;;;;;;;125.50;44.42;;;;;;;8.92;97.25;102675.72;1970577;30;31403;-63
2021/12/15 03:16:23;;;;;;;127.25;44.60;;;;;;;8.93;97.11;102669.47;1975525;29;21251;-63
2021/12/15 03:17:25;;;;;;;118.70;44.10;;;;;;;8.93;96.87;102678.38;1977725;29;20133;-63
2021/12/15 03:18:30;;;;;;;122.80;45.42;;;;;;;8.96;96.87;102677.53;1972480;30;20048;-63
2021/12/15 03:19:38;;;;;;;115.88;43.67;;;;;;;8.94;97.63;102673.97;1971825;30;20090;-63
2021/12/15 03:21:09;;;;;;;123.95;44.55;;;;;;;8.95;96.67;102678.41;1972049;30;20045;-63
2021/12/15 03:22:11;;;;;;;118.45;42.80;;;;;;;8.95;96.94;102670.38;1971601;30;26637;-63
2021/12/15 03:23:22;;;;;;;124.78;44.78;;;;;;;8.94;96.91;102671.28;1971943;30;20060;-63
2021/12/15 03:24:27;;;;;;;115.75;43.70;;;;;;;8.94;97.23;102664.16;1970907;30;25682;-63
2021/12/15 03:25:32;;;;;;;114.75;42.30;;;;;;;8.95;96.96;102665.97;1971636;30;20088;-63
2021/12/15 03:26:45;;;;;;;123.97;44.35;;;;;;;8.93;96.89;102665.03;1971860;30;24592;-63
2021/12/15 03:33:29;;;;;;;108.53;41.03;;;;;;;8.95;97.41;102667.72;1971919;30;20048;-63
2021/12/15 03:36:06;;;;;;;118.13;42.50;;;;;;;8.94;97.57;102663.28;1971353;30;25622;-63
2021/12/15 03:37:23;;;;;;;105.68;39.65;;;;;;;8.95;97.72;102665.03;1971776;30;20151;-63
2021/12/15 03:38:28;;;;;;;97.25;37.58;;;;;;;8.95;97.07;102665.03;1970009;30;29072;-63
2021/12/15 03:39:42;;;;;;;110.72;39.28;;;;;;;8.94;97.34;102669.50;1971002;30;21785;-62
2021/12/15 03:40:43;;;;;;;104.53;40.00;;;;;;;8.94;97.25;102665.94;1971583;30;20931;-62
2021/12/15 03:41:51;;;;;;;101.57;38.90;;;;;;;8.94;97.20;102660.59;1971464;30;26724;-63
2021/12/15 03:42:58;;;;;;;102.22;38.05;;;;;;;8.95;96.97;102663.28;1970638;30;24367;-63
2021/12/15 03:44:02;;;;;;;111.03;41.67;;;;;;;8.94;97.58;102665.94;1970204;30;25717;-63
2021/12/15 03:45:16;;;;;;;107.38;40.33;;;;;;;8.94;96.91;102665.94;1971698;30;20041;-62
2021/12/15 03:46:18;;;;;;;110.65;39.58;;;;;;;8.94;97.73;102657.94;1971303;30;20040;-63
2021/12/15 03:47:29;;;;;;;102.25;39.88;;;;;;;8.94;97.21;102663.28;1971271;30;20282;-64
2021/12/15 03:48:35;;;;;;;100.93;39.78;;;;;;;8.94;97.10;102665.94;1971440;30;20198;-63
2021/12/15 03:49:37;;;;;;;99.90;38.60;;;;;;;8.93;97.46;102672.16;1971480;30;29750;-62
2021/12/15 03:50:40;;;;;;;99.18;38.25;;;;;;;8.94;97.03;102663.28;1970854;30;29461;-63
2021/12/15 03:51:42;;;;;;;102.72;40.33;;;;;;;8.94;97.21;102657.94;1971425;30;20040;-62
2021/12/15 03:52:48;;;;;;;108.10;39.75;;;;;;;8.94;97.44;102668.63;1971354;30;20044;-63
2021/12/15 03:53:50;;;;;;;96.40;37.65;;;;;;;8.93;97.33;102657.00;1970949;30;20967;-63
2021/12/15 03:54:52;;;;;;;101.80;39.08;;;;;;;8.93;97.30;102664.13;1971067;30;27249;-63
2021/12/15 03:55:56;;;;;;;92.43;36.65;;;;;;;8.94;97.77;102664.16;1971585;30;23601;-63
2021/12/15 03:56:58;;;;;;;99.88;38.15;;;;;;;8.94;96.88;102665.94;1971631;30;26113;-62
2021/12/15 03:58:07;;;;;;;99.97;40.42;;;;;;;8.93;97.88;102665.03;1971477;30;28940;-62
2021/12/15 03:59:10;;;;;;;85.18;35.13;;;;;;;8.95;97.75;102671.31;1971449;30;20044;-62
2021/12/15 04:00:16;;;;;;;100.07;38.17;;;;;;;8.94;97.53;102672.16;1971720;30;20175;-63
2021/12/15 04:01:22;;;;;;;91.72;37.30;;;;;;;8.95;97.44;102651.69;1971997;30;20132;-63
2021/12/15 04:02:25;;;;;;;90.47;36.80;;;;;;;8.95;97.22;102665.03;1971195;29;26916;-63
2021/12/15 04:03:36;;;;;;;88.18;36.67;;;;;;;8.95;97.87;102665.97;1971668;30;23344;-63
2021/12/15 04:04:39;;;;;;;92.40;37.28;;;;;;;8.93;97.45;102657.00;1971715;30;21790;-63
2021/12/15 04:05:42;;;;;;;86.80;35.03;;;;;;;8.95;97.31;102660.63;1971550;30;21160;-63
2021/12/15 04:06:45;;;;;;;85.60;36.63;;;;;;;8.94;97.31;102650.78;1971773;30;20040;-63
2021/12/15 04:07:50;;;;;;;85.03;35.38;;;;;;;8.95;97.51;102655.28;1971852;30;28296;-63
2021/12/15 04:08:54;;;;;;;79.72;32.63;;;;;;;8.95;96.84;102657.03;1970948;30;23285;-63
2021/12/15 04:09:56;;;;;;;90.57;35.60;;;;;;;8.96;96.94;102664.19;1971517;30;20044;-63
2021/12/15 04:10:58;;;;;;;89.57;35.97;;;;;;;8.94;97.25;102661.47;1970758;30;24954;-63
2021/12/15 04:12:01;;;;;;;83.85;34.08;;;;;;;8.95;97.03;102667.72;1971452;30;20084;-63
2021/12/15 04:13:03;;;;;;;75.65;32.33;;;;;;;8.97;97.38;102665.94;1971545;30;26842;-63
2021/12/15 04:14:11;;;;;;;80.72;35.25;;;;;;;8.96;97.45;102669.53;1971102;30;22236;-62
2021/12/15 04:17:34;;;;;;;77.30;34.30;;;;;;;8.97;96.54;102665.94;1971368;30;28547;-62
2021/12/15 04:18:37;;;;;;;76.93;34.20;;;;;;;8.98;97.41;102665.97;1971281;30;29729;-63
2021/12/15 04:19:39;;;;;;;83.68;34.75;;;;;;;8.96;97.36;102670.41;1971838;30;20048;-63
2021/12/15 04:20:41;;;;;;;80.85;33.60;;;;;;;8.98;96.81;102667.75;1970981;29;28969;-63
2021/12/15 04:21:43;;;;;;;77.22;33.88;;;;;;;8.98;96.85;102675.78;1971856;30;20241;-62
2021/12/15 04:22:46;;;;;;;82.13;34.75;;;;;;;8.97;96.85;102669.53;1970969;30;20957;-63
2021/12/15 04:23:54;;;;;;;81.28;33.05;;;;;;;8.99;96.61;102680.25;1970690;30;26271;-61
2021/12/15 04:24:58;;;;;;;79.63;34.17;;;;;;;9.00;97.35;102681.13;1970912;30;30122;-62
2021/12/15 04:26:00;;;;;;;78.45;31.90;;;;;;;8.97;97.10;102672.22;1970906;30;22444;-63
2021/12/15 04:27:03;;;;;;;75.75;30.90;;;;;;;8.99;97.46;102669.56;1970914;30;23813;-62
2021/12/15 04:28:07;;;;;;;73.93;32.20;;;;;;;9.00;97.25;102676.69;1971023;30;20109;-62
2021/12/15 04:29:09;;;;;;;73.68;32.15;;;;;;;9.00;96.91;102676.69;1971231;30;23640;-63
2021/12/15 04:30:11;;;;;;;81.57;32.70;;;;;;;8.98;96.67;102668.66;1971312;30;20098;-62
2021/12/15 04:31:19;;;;;;;74.30;32.28;;;;;;;8.98;97.19;102668.66;1971219;30;20156;-62
2021/12/15 04:32:45;;;;;;;71.10;31.00;;;;;;;8.98;96.40;102665.97;1971256;30;22613;-63
2021/12/15 04:33:58;;;;;;;66.07;28.58;;;;;;;9.00;96.95;102668.66;1971485;30;20202;-63
2021/12/15 04:35:00;;;;;;;71.18;30.67;;;;;;;8.99;96.59;102669.56;1970775;30;23486;-63
2021/12/15 04:36:06;;;;;;;68.03;30.73;;;;;;;9.01;96.77;102667.81;1970867;30;20040;-63
2021/12/15 04:37:08;;;;;;;71.57;30.00;;;;;;;8.98;97.19;102655.28;1970861;30;22797;-63
2021/12/15 04:38:13;;;;;;;66.10;29.75;;;;;;;8.99;97.04;102666.91;1971044;30;20141;-63
2021/12/15 04:39:19;;;;;;;67.25;29.58;;;;;;;9.01;96.84;102670.47;1971118;30;20102;-63
2021/12/15 04:40:23;;;;;;;71.70;29.73;;;;;;;9.00;96.78;102670.47;1970620;30;31064;-63
2021/12/15 04:41:26;;;;;;;69.75;30.42;;;;;;;9.01;96.99;102673.16;1971534;30;20434;-62
2021/12/15 04:42:38;;;;;;;68.45;29.40;;;;;;;9.00;97.00;102666.00;1971360;30;23558;-62
2021/12/15 04:43:40;;;;;;;63.30;28.88;;;;;;;8.99;96.75;102664.22;1970757;30;28679;-63
2021/12/15 04:44:45;;;;;;;61.50;28.02;;;;;;;8.99;96.49;102674.91;1971532;30;20181;-63
2021/12/15 04:45:47;;;;;;;61.10;27.48;;;;;;;9.00;96.46;102668.66;1971013;29;27399;-63
2021/12/15 04:47:00;;;;;;;61.80;28.55;;;;;;;9.01;97.22;102675.81;1971580;30;21964;-62
2021/12/15 04:48:04;;;;;;;57.60;27.38;;;;;;;9.01;96.18;102673.16;1971095;30;20048;-63
2021/12/15 04:49:08;;;;;;;62.17;29.75;;;;;;;9.01;96.66;102678.50;1970898;30;23035;-62
2021/12/15 04:50:12;;;;;;;61.33;28.00;;;;;;;9.01;96.85;102678.50;1971180;30;23413;-63
2021/12/15 04:51:14;;;;;;;63.97;28.20;;;;;;;9.03;96.72;102684.75;1971705;30;20048;-63
2021/12/15 04:52:19;;;;;;;57.92;26.80;;;;;;;9.03;97.02;102679.41;1970999;30;29750;-62
2021/12/15 04:53:22;;;;;;;59.03;27.92;;;;;;;9.01;96.24;102678.50;1970985;30;20076;-63
2021/12/15 04:54:25;;;;;;;60.78;27.02;;;;;;;9.01;96.21;102680.25;1971032;30;23405;-62
2021/12/15 04:55:29;;;;;;;61.53;28.83;;;;;;;9.01;96.82;102683.84;1971106;30;24270;-62
2021/12/15 04:56:31;;;;;;;56.65;27.35;;;;;;;9.00;96.20;102679.34;1971551;30;20044;-63
2021/12/15 04:57:34;;;;;;;60.97;29.38;;;;;;;8.99;96.42;102680.25;1971420;30;23610;-63
2021/12/15 04:58:36;;;;;;;61.17;28.35;;;;;;;9.01;96.50;102673.16;1970728;30;22057;-63
2021/12/15 04:59:39;;;;;;;58.33;28.40;;;;;;;9.03;96.91;102679.41;1971052;30;20045;-63
2021/12/15 05:00:50;;;;;;;58.88;28.25;;;;;;;9.01;96.73;102677.56;1970699;30;27823;-63
2021/12/15 05:01:53;;;;;;;59.33;27.30;;;;;;;9.02;96.85;102685.59;1971023;30;20049;-63
2021/12/15 05:02:57;;;;;;;59.72;27.55;;;;;;;9.01;95.86;102683.84;1971238;30;23451;-63
2021/12/15 05:03:59;;;;;;;57.92;27.58;;;;;;;9.03;95.82;102684.75;1970890;30;29238;-63
2021/12/15 05:05:04;;;;;;;56.90;27.48;;;;;;;9.02;96.81;102674.91;1971833;30;20909;-63
2021/12/15 05:06:07;;;;;;;55.85;26.88;;;;;;;9.03;96.38;102687.41;1970819;30;28386;-63
2021/12/15 05:07:09;;;;;;;53.67;26.23;;;;;;;9.03;96.46;102686.53;1971552;30;20167;-63
2021/12/15 05:08:14;;;;;;;57.80;27.50;;;;;;;9.01;96.17;102678.50;1970780;30;21894;-63
2021/12/15 05:09:16;;;;;;;56.97;28.73;;;;;;;9.01;95.93;102681.16;1971018;30;20985;-63
2021/12/15 05:10:20;;;;;;;55.13;26.95;;;;;;;9.01;96.11;102678.50;1971640;30;20047;-63
2021/12/15 05:11:23;;;;;;;51.85;26.23;;;;;;;9.02;96.56;102688.28;1971192;30;23705;-63
2021/12/15 05:12:25;;;;;;;54.47;27.52;;;;;;;9.00;96.10;102679.34;1970839;29;25878;-62
2021/12/15 05:13:27;;;;;;;60.75;28.00;;;;;;;9.01;96.53;102683.84;1971436;30;20935;-62
2021/12/15 05:14:31;;;;;;;60.15;29.10;;;;;;;9.02;95.81;102682.06;1970686;30;32167;-63
2021/12/15 05:15:35;;;;;;;59.40;29.30;;;;;;;9.01;96.15;102685.59;1970496;30;30064;-63
2021/12/15 05:16:37;;;;;;;59.75;28.08;;;;;;;9.02;96.02;102685.59;1970919;30;21755;-62
2021/12/15 05:17:39;;;;;;;60.08;28.83;;;;;;;9.00;96.34;102683.81;1971245;30;25871;-63
2021/12/15 05:18:43;;;;;;;60.85;28.27;;;;;;;9.00;96.48;102684.69;1971350;30;23163;-63
2021/12/15 05:19:47;;;;;;;54.05;26.60;;;;;;;9.02;96.55;102692.75;1971586;30;20155;-63
2021/12/15 05:20:51;;;;;;;59.63;30.25;;;;;;;8.98;96.35;102689.13;1971239;30;25736;-63
2021/12/15 05:21:57;;;;;;;50.35;26.92;;;;;;;9.02;96.00;102692.75;1971395;30;21146;-63
2021/12/15 05:23:01;;;;;;;60.15;29.52;;;;;;;9.00;96.50;102687.38;1971903;30;22691;-63
2021/12/15 05:24:13;;;;;;;60.28;29.67;;;;;;;9.00;96.33;102687.38;1971982;30;20048;-63
2021/12/15 05:25:18;;;;;;;60.35;29.63;;;;;;;9.00;95.92;102689.16;1972694;30;20922;-63
2021/12/15 05:26:21;;;;;;;55.25;27.42;;;;;;;9.01;96.28;102689.19;1972498;30;20044;-63
2021/12/15 05:27:23;;;;;;;57.17;28.60;;;;;;;8.99;96.02;102688.28;1988724;24;24995;-62
2021/12/15 05:28:26;;;;;;;57.97;28.38;;;;;;;9.01;96.00;102694.53;2003242;29;27847;-62
2021/12/15 05:29:29;;;;;;;60.78;29.38;;;;;;;8.99;96.23;102690.94;2003843;29;20174;-62
2021/12/15 05:30:31;;;;;;;65.35;30.88;;;;;;;8.98;95.84;102691.81;1994396;29;25221;-62
2021/12/15 05:31:33;;;;;;;64.93;30.95;;;;;;;8.97;96.24;102685.56;1995166;29;20047;-62
2021/12/15 05:32:36;;;;;;;59.92;28.70;;;;;;;8.99;95.48;102696.28;1995205;29;20043;-63
2021/12/15 05:33:38;;;;;;;57.75;28.45;;;;;;;9.00;95.49;102700.72;1994736;29;23261;-64
2021/12/15 05:34:40;;;;;;;57.40;29.60;;;;;;;9.00;95.76;102690.03;1995010;29;22456;-62
2021/12/15 05:35:42;;;;;;;60.67;30.80;;;;;;;9.01;96.11;102696.28;2002295;29;21017;-61